sensor_id;sensor_type;location;lat;lon;timestamp;temperature;humidity
65040;HTU21D;51606;45.000;38.612;2023-07-31T04:08:00;26.51;60.22
65040;HTU21D;51606;45.000;38.612;2023-07-31T04:10:26;27.22;59.80
65040;HTU21D;51606;45.000;38.612;2023-07-31T04:12:53;28.24;58.75
65040;HTU21D;51606;45.000;38.612;2023-07-31T04:15:19;29.32;57.48
65040;HTU21D;51606;45.000;38.612;2023-07-31T04:17:45;30.25;56.43
65040;HTU21D;51606;45.000;38.612;2023-07-31T04:20:12;30.75;56.10
65040;HTU21D;51606;45.000;38.612;2023-07-31T04:22:38;31.37;55.52
65040;HTU21D;51606;45.000;38.612;2023-07-31T04:25:05;32.14;54.71
65040;HTU21D;51606;45.000;38.612;2023-07-31T04:27:32;33.14;53.42
65040;HTU21D;51606;45.000;38.612;2023-07-31T04:29:58;34.01;52.37
65040;HTU21D;51606;45.000;38.612;2023-07-31T04:32:25;34.79;51.29
65040;HTU21D;51606;45.000;38.612;2023-07-31T04:34:51;35.42;50.50
65040;HTU21D;51606;45.000;38.612;2023-07-31T04:37:17;36.08;49.65
65040;HTU21D;51606;45.000;38.612;2023-07-31T04:39:44;36.54;49.10
65040;HTU21D;51606;45.000;38.612;2023-07-31T04:42:10;36.80;48.82
65040;HTU21D;51606;45.000;38.612;2023-07-31T04:44:36;37.22;48.32
65040;HTU21D;51606;45.000;38.612;2023-07-31T04:47:03;37.67;47.58
65040;HTU21D;51606;45.000;38.612;2023-07-31T04:49:29;38.15;46.81
65040;HTU21D;51606;45.000;38.612;2023-07-31T04:51:56;38.30;46.49
65040;HTU21D;51606;45.000;38.612;2023-07-31T04:54:22;38.08;46.73
65040;HTU21D;51606;45.000;38.612;2023-07-31T04:56:48;38.56;45.96
65040;HTU21D;51606;45.000;38.612;2023-07-31T04:59:15;39.05;45.03
65040;HTU21D;51606;45.000;38.612;2023-07-31T05:01:41;39.42;44.45
65040;HTU21D;51606;45.000;38.612;2023-07-31T05:04:07;39.71;43.96
65040;HTU21D;51606;45.000;38.612;2023-07-31T05:06:34;39.88;43.71
65040;HTU21D;51606;45.000;38.612;2023-07-31T05:09:01;40.27;42.97
65040;HTU21D;51606;45.000;38.612;2023-07-31T05:11:27;40.06;43.00
65040;HTU21D;51606;45.000;38.612;2023-07-31T05:13:53;40.10;42.71
65040;HTU21D;51606;45.000;38.612;2023-07-31T05:16:20;40.04;42.58
65040;HTU21D;51606;45.000;38.612;2023-07-31T05:18:47;40.37;41.86
65040;HTU21D;51606;45.000;38.612;2023-07-31T05:21:13;40.12;41.84
65040;HTU21D;51606;45.000;38.612;2023-07-31T05:23:40;39.95;41.78
65040;HTU21D;51606;45.000;38.612;2023-07-31T05:26:07;39.74;41.87
65040;HTU21D;51606;45.000;38.612;2023-07-31T05:28:35;40.08;41.04
65040;HTU21D;51606;45.000;38.612;2023-07-31T05:31:02;39.71;41.29
65040;HTU21D;51606;45.000;38.612;2023-07-31T05:33:29;40.00;40.84
65040;HTU21D;51606;45.000;38.612;2023-07-31T05:35:55;40.56;40.00
65040;HTU21D;51606;45.000;38.612;2023-07-31T05:38:22;41.17;39.20
65040;HTU21D;51606;45.000;38.612;2023-07-31T05:40:48;41.43;38.63
65040;HTU21D;51606;45.000;38.612;2023-07-31T05:43:15;41.30;38.75
65040;HTU21D;51606;45.000;38.612;2023-07-31T05:45:42;41.04;38.74
65040;HTU21D;51606;45.000;38.612;2023-07-31T05:48:10;41.00;38.69
65040;HTU21D;51606;45.000;38.612;2023-07-31T05:50:36;41.13;38.52
65040;HTU21D;51606;45.000;38.612;2023-07-31T05:53:05;41.40;37.98
65040;HTU21D;51606;45.000;38.612;2023-07-31T05:55:32;41.29;38.01
65040;HTU21D;51606;45.000;38.612;2023-07-31T05:57:58;41.27;37.74
65040;HTU21D;51606;45.000;38.612;2023-07-31T06:00:25;40.98;37.95
65040;HTU21D;51606;45.000;38.612;2023-07-31T06:02:51;41.36;37.28
65040;HTU21D;51606;45.000;38.612;2023-07-31T06:05:18;41.50;36.79
65040;HTU21D;51606;45.000;38.612;2023-07-31T06:07:44;41.31;36.84
65040;HTU21D;51606;45.000;38.612;2023-07-31T06:10:11;41.48;36.58
65040;HTU21D;51606;45.000;38.612;2023-07-31T06:12:37;41.70;36.12
65040;HTU21D;51606;45.000;38.612;2023-07-31T06:15:04;41.72;35.96
65040;HTU21D;51606;45.000;38.612;2023-07-31T06:17:31;41.41;36.08
65040;HTU21D;51606;45.000;38.612;2023-07-31T06:19:57;41.02;36.47
65040;HTU21D;51606;45.000;38.612;2023-07-31T06:22:24;40.68;36.66
65040;HTU21D;51606;45.000;38.612;2023-07-31T06:24:50;40.24;36.98
65040;HTU21D;51606;45.000;38.612;2023-07-31T06:27:17;39.96;37.10
65040;HTU21D;51606;45.000;38.612;2023-07-31T06:29:46;39.63;37.27
65040;HTU21D;51606;45.000;38.612;2023-07-31T06:32:12;39.68;37.08
65040;HTU21D;51606;45.000;38.612;2023-07-31T06:34:39;39.51;37.06
65040;HTU21D;51606;45.000;38.612;2023-07-31T06:37:06;39.62;36.76
65040;HTU21D;51606;45.000;38.612;2023-07-31T06:39:32;39.45;37.02
65040;HTU21D;51606;45.000;38.612;2023-07-31T06:41:59;39.59;36.71
65040;HTU21D;51606;45.000;38.612;2023-07-31T06:44:25;39.83;36.39
65040;HTU21D;51606;45.000;38.612;2023-07-31T06:46:52;40.03;35.98
65040;HTU21D;51606;45.000;38.612;2023-07-31T06:49:18;40.00;36.05
65040;HTU21D;51606;45.000;38.612;2023-07-31T06:51:44;39.80;36.32
65040;HTU21D;51606;45.000;38.612;2023-07-31T06:54:11;39.13;37.20
65040;HTU21D;51606;45.000;38.612;2023-07-31T06:56:37;38.66;37.82
65040;HTU21D;51606;45.000;38.612;2023-07-31T06:59:04;38.46;38.04
65040;HTU21D;51606;45.000;38.612;2023-07-31T07:01:30;38.60;37.83
65040;HTU21D;51606;45.000;38.612;2023-07-31T07:03:56;38.60;37.59
65040;HTU21D;51606;45.000;38.612;2023-07-31T07:06:23;38.40;37.87
65040;HTU21D;51606;45.000;38.612;2023-07-31T07:08:49;38.22;38.04
65040;HTU21D;51606;45.000;38.612;2023-07-31T07:11:16;37.86;38.36
65040;HTU21D;51606;45.000;38.612;2023-07-31T07:13:42;37.85;38.32
65040;HTU21D;51606;45.000;38.612;2023-07-31T07:16:09;37.75;38.53
65040;HTU21D;51606;45.000;38.612;2023-07-31T07:18:36;37.95;38.20
65040;HTU21D;51606;45.000;38.612;2023-07-31T07:21:03;38.18;37.94
65040;HTU21D;51606;45.000;38.612;2023-07-31T07:23:29;38.38;37.71
65040;HTU21D;51606;45.000;38.612;2023-07-31T07:25:59;38.15;38.00
65040;HTU21D;51606;45.000;38.612;2023-07-31T07:28:26;37.87;38.41
65040;HTU21D;51606;45.000;38.612;2023-07-31T07:30:52;37.90;38.27
65040;HTU21D;51606;45.000;38.612;2023-07-31T07:33:21;37.91;38.30
65040;HTU21D;51606;45.000;38.612;2023-07-31T07:35:47;37.93;38.29
65040;HTU21D;51606;45.000;38.612;2023-07-31T07:38:14;37.99;37.95
65040;HTU21D;51606;45.000;38.612;2023-07-31T07:40:41;37.80;38.07
65040;HTU21D;51606;45.000;38.612;2023-07-31T07:43:08;37.47;38.29
65040;HTU21D;51606;45.000;38.612;2023-07-31T07:45:34;37.42;38.49
65040;HTU21D;51606;45.000;38.612;2023-07-31T07:48:01;37.63;38.06
65040;HTU21D;51606;45.000;38.612;2023-07-31T07:50:27;37.86;37.78
65040;HTU21D;51606;45.000;38.612;2023-07-31T07:52:53;37.93;37.64
65040;HTU21D;51606;45.000;38.612;2023-07-31T07:55:20;38.10;37.37
65040;HTU21D;51606;45.000;38.612;2023-07-31T07:57:46;38.21;37.27
65040;HTU21D;51606;45.000;38.612;2023-07-31T08:00:13;38.45;36.89
65040;HTU21D;51606;45.000;38.612;2023-07-31T08:02:40;38.62;36.75
65040;HTU21D;51606;45.000;38.612;2023-07-31T08:05:06;38.79;36.50
65040;HTU21D;51606;45.000;38.612;2023-07-31T08:07:33;38.96;36.24
65040;HTU21D;51606;45.000;38.612;2023-07-31T08:09:59;38.98;36.19
65040;HTU21D;51606;45.000;38.612;2023-07-31T08:12:26;38.82;36.27
65040;HTU21D;51606;45.000;38.612;2023-07-31T08:14:52;38.61;36.34
65040;HTU21D;51606;45.000;38.612;2023-07-31T08:17:19;38.56;36.39
65040;HTU21D;51606;45.000;38.612;2023-07-31T08:19:45;38.51;36.30
65040;HTU21D;51606;45.000;38.612;2023-07-31T08:22:12;38.37;36.25
65040;HTU21D;51606;45.000;38.612;2023-07-31T08:24:38;38.31;36.16
65040;HTU21D;51606;45.000;38.612;2023-07-31T08:27:06;38.36;35.95
65040;HTU21D;51606;45.000;38.612;2023-07-31T08:29:32;38.62;35.59
65040;HTU21D;51606;45.000;38.612;2023-07-31T08:31:59;38.75;35.44
65040;HTU21D;51606;45.000;38.612;2023-07-31T08:34:25;38.96;35.08
65040;HTU21D;51606;45.000;38.612;2023-07-31T08:36:51;39.05;34.74
65040;HTU21D;51606;45.000;38.612;2023-07-31T08:39:18;38.85;34.81
65040;HTU21D;51606;45.000;38.612;2023-07-31T08:41:44;38.76;34.89
65040;HTU21D;51606;45.000;38.612;2023-07-31T08:44:11;38.66;34.75
65040;HTU21D;51606;45.000;38.612;2023-07-31T08:46:38;38.47;34.93
65040;HTU21D;51606;45.000;38.612;2023-07-31T08:49:05;38.28;34.95
65040;HTU21D;51606;45.000;38.612;2023-07-31T08:51:34;38.09;34.89
65040;HTU21D;51606;45.000;38.612;2023-07-31T08:54:01;38.02;34.82
65040;HTU21D;51606;45.000;38.612;2023-07-31T08:56:34;37.92;34.91
65040;HTU21D;51606;45.000;38.612;2023-07-31T08:59:02;37.94;34.95
65040;HTU21D;51606;45.000;38.612;2023-07-31T09:01:32;37.76;35.05
65040;HTU21D;51606;45.000;38.612;2023-07-31T09:04:01;37.52;35.19
65040;HTU21D;51606;45.000;38.612;2023-07-31T09:06:30;37.62;35.12
65040;HTU21D;51606;45.000;38.612;2023-07-31T09:08:58;37.55;35.05
65040;HTU21D;51606;45.000;38.612;2023-07-31T09:11:25;37.25;35.36
65040;HTU21D;51606;45.000;38.612;2023-07-31T09:13:52;36.93;35.56
65040;HTU21D;51606;45.000;38.612;2023-07-31T09:16:27;36.59;35.93
65040;HTU21D;51606;45.000;38.612;2023-07-31T09:18:57;36.61;35.71
65040;HTU21D;51606;45.000;38.612;2023-07-31T09:21:24;36.39;35.97
65040;HTU21D;51606;45.000;38.612;2023-07-31T09:23:52;36.41;35.96
65040;HTU21D;51606;45.000;38.612;2023-07-31T09:29:00;36.46;35.68
65040;HTU21D;51606;45.000;38.612;2023-07-31T09:34:00;36.63;35.45
65040;HTU21D;51606;45.000;38.612;2023-07-31T09:36:29;36.31;35.72
65040;HTU21D;51606;45.000;38.612;2023-07-31T09:39:02;36.13;35.90
65040;HTU21D;51606;45.000;38.612;2023-07-31T09:41:30;36.18;35.79
65040;HTU21D;51606;45.000;38.612;2023-07-31T09:43:57;36.07;35.81
65040;HTU21D;51606;45.000;38.612;2023-07-31T09:46:27;36.04;35.80
65040;HTU21D;51606;45.000;38.612;2023-07-31T09:48:53;36.01;35.71
65040;HTU21D;51606;45.000;38.612;2023-07-31T09:51:30;35.87;35.92
65040;HTU21D;51606;45.000;38.612;2023-07-31T09:53:57;36.01;35.76
65040;HTU21D;51606;45.000;38.612;2023-07-31T09:56:23;36.28;35.50
65040;HTU21D;51606;45.000;38.612;2023-07-31T09:58:53;36.40;35.37
65040;HTU21D;51606;45.000;38.612;2023-07-31T10:01:20;36.33;35.43
65040;HTU21D;51606;45.000;38.612;2023-07-31T10:03:46;36.25;35.52
65040;HTU21D;51606;45.000;38.612;2023-07-31T10:06:14;36.19;35.58
65040;HTU21D;51606;45.000;38.612;2023-07-31T10:08:42;36.12;35.68
65040;HTU21D;51606;45.000;38.612;2023-07-31T10:11:10;36.01;35.48
65040;HTU21D;51606;45.000;38.612;2023-07-31T10:13:37;35.86;35.66
65040;HTU21D;51606;45.000;38.612;2023-07-31T10:16:05;35.83;35.63
65040;HTU21D;51606;45.000;38.612;2023-07-31T10:18:32;35.74;35.65
65040;HTU21D;51606;45.000;38.612;2023-07-31T10:20:59;35.68;35.79
65040;HTU21D;51606;45.000;38.612;2023-07-31T10:23:26;35.45;35.92
65040;HTU21D;51606;45.000;38.612;2023-07-31T10:25:57;35.33;36.07
65040;HTU21D;51606;45.000;38.612;2023-07-31T10:28:26;35.41;35.98
65040;HTU21D;51606;45.000;38.612;2023-07-31T10:30:53;35.62;35.69
65040;HTU21D;51606;45.000;38.612;2023-07-31T10:33:22;35.79;35.38
65040;HTU21D;51606;45.000;38.612;2023-07-31T10:35:49;35.86;35.23
65040;HTU21D;51606;45.000;38.612;2023-07-31T10:38:17;35.89;35.34
65040;HTU21D;51606;45.000;38.612;2023-07-31T10:40:44;35.99;35.31
65040;HTU21D;51606;45.000;38.612;2023-07-31T10:43:24;36.14;35.12
65040;HTU21D;51606;45.000;38.612;2023-07-31T10:45:54;36.21;35.16
65040;HTU21D;51606;45.000;38.612;2023-07-31T10:48:20;36.29;34.99
65040;HTU21D;51606;45.000;38.612;2023-07-31T10:50:50;36.36;34.86
65040;HTU21D;51606;45.000;38.612;2023-07-31T10:53:29;36.44;34.82
65040;HTU21D;51606;45.000;38.612;2023-07-31T10:56:06;36.47;34.79
65040;HTU21D;51606;45.000;38.612;2023-07-31T10:58:34;36.52;34.76
65040;HTU21D;51606;45.000;38.612;2023-07-31T11:01:02;36.46;34.80
65040;HTU21D;51606;45.000;38.612;2023-07-31T11:06:09;36.31;35.01
65040;HTU21D;51606;45.000;38.612;2023-07-31T11:08:44;36.27;34.95
65040;HTU21D;51606;45.000;38.612;2023-07-31T11:11:16;36.22;35.10
65040;HTU21D;51606;45.000;38.612;2023-07-31T11:13:50;36.18;35.11
65040;HTU21D;51606;45.000;38.612;2023-07-31T11:16:25;36.12;35.06
65040;HTU21D;51606;45.000;38.612;2023-07-31T11:18:52;36.08;35.20
65040;HTU21D;51606;45.000;38.612;2023-07-31T11:21:24;36.16;35.11
65040;HTU21D;51606;45.000;38.612;2023-07-31T11:23:53;36.25;35.01
65040;HTU21D;51606;45.000;38.612;2023-07-31T11:26:20;36.25;34.99
65040;HTU21D;51606;45.000;38.612;2023-07-31T11:28:48;36.31;34.88
65040;HTU21D;51606;45.000;38.612;2023-07-31T11:31:14;36.26;34.97
65040;HTU21D;51606;45.000;38.612;2023-07-31T11:33:41;36.15;35.11
65040;HTU21D;51606;45.000;38.612;2023-07-31T11:36:18;36.18;34.96
65040;HTU21D;51606;45.000;38.612;2023-07-31T11:38:45;36.12;35.13
65040;HTU21D;51606;45.000;38.612;2023-07-31T11:41:14;36.10;35.05
65040;HTU21D;51606;45.000;38.612;2023-07-31T11:43:42;35.96;35.14
65040;HTU21D;51606;45.000;38.612;2023-07-31T11:46:09;35.90;35.11
65040;HTU21D;51606;45.000;38.612;2023-07-31T11:48:37;35.93;35.02
65040;HTU21D;51606;45.000;38.612;2023-07-31T11:51:05;35.85;34.95
65040;HTU21D;51606;45.000;38.612;2023-07-31T11:53:40;35.79;35.05
65040;HTU21D;51606;45.000;38.612;2023-07-31T11:56:09;35.85;34.86
65040;HTU21D;51606;45.000;38.612;2023-07-31T11:58:38;35.89;34.85
65040;HTU21D;51606;45.000;38.612;2023-07-31T12:01:05;35.95;34.74
65040;HTU21D;51606;45.000;38.612;2023-07-31T12:03:33;35.92;34.79
65040;HTU21D;51606;45.000;38.612;2023-07-31T12:06:00;35.85;34.82
65040;HTU21D;51606;45.000;38.612;2023-07-31T12:08:26;35.53;34.89
65040;HTU21D;51606;45.000;38.612;2023-07-31T12:10:54;35.43;34.98
65040;HTU21D;51606;45.000;38.612;2023-07-31T12:13:25;35.53;34.85
65040;HTU21D;51606;45.000;38.612;2023-07-31T12:15:57;35.65;34.78
65040;HTU21D;51606;45.000;38.612;2023-07-31T12:18:25;35.57;34.96
65040;HTU21D;51606;45.000;38.612;2023-07-31T12:20:59;35.21;35.40
65040;HTU21D;51606;45.000;38.612;2023-07-31T12:23:28;34.99;35.61
65040;HTU21D;51606;45.000;38.612;2023-07-31T12:26:09;34.99;35.32
65040;HTU21D;51606;45.000;38.612;2023-07-31T12:28:44;34.96;35.33
65040;HTU21D;51606;45.000;38.612;2023-07-31T12:31:12;34.98;35.22
65040;HTU21D;51606;45.000;38.612;2023-07-31T12:33:39;34.99;35.30
65040;HTU21D;51606;45.000;38.612;2023-07-31T12:36:14;35.08;35.28
65040;HTU21D;51606;45.000;38.612;2023-07-31T12:38:41;35.28;35.03
65040;HTU21D;51606;45.000;38.612;2023-07-31T12:41:08;35.34;35.04
65040;HTU21D;51606;45.000;38.612;2023-07-31T12:43:36;35.27;35.26
65040;HTU21D;51606;45.000;38.612;2023-07-31T12:46:06;35.18;35.51
65040;HTU21D;51606;45.000;38.612;2023-07-31T12:48:34;35.15;35.56
65040;HTU21D;51606;45.000;38.612;2023-07-31T12:51:04;35.04;35.70
65040;HTU21D;51606;45.000;38.612;2023-07-31T12:53:33;34.99;35.73
65040;HTU21D;51606;45.000;38.612;2023-07-31T12:55:59;34.96;35.85
65040;HTU21D;51606;45.000;38.612;2023-07-31T12:58:25;35.01;35.82
65040;HTU21D;51606;45.000;38.612;2023-07-31T13:00:52;35.06;35.73
65040;HTU21D;51606;45.000;38.612;2023-07-31T13:03:18;35.10;35.69
65040;HTU21D;51606;45.000;38.612;2023-07-31T13:05:44;35.07;35.76
65040;HTU21D;51606;45.000;38.612;2023-07-31T13:08:31;34.99;35.80
65040;HTU21D;51606;45.000;38.612;2023-07-31T13:10:58;34.99;35.86
65040;HTU21D;51606;45.000;38.612;2023-07-31T13:13:24;34.98;35.79
65040;HTU21D;51606;45.000;38.612;2023-07-31T13:15:51;34.92;35.90
65040;HTU21D;51606;45.000;38.612;2023-07-31T13:18:17;34.85;36.08
65040;HTU21D;51606;45.000;38.612;2023-07-31T13:20:44;34.81;36.10
65040;HTU21D;51606;45.000;38.612;2023-07-31T13:23:12;34.78;36.18
65040;HTU21D;51606;45.000;38.612;2023-07-31T13:25:41;34.68;36.40
65040;HTU21D;51606;45.000;38.612;2023-07-31T13:28:07;34.64;36.53
65040;HTU21D;51606;45.000;38.612;2023-07-31T13:30:34;34.55;36.47
65040;HTU21D;51606;45.000;38.612;2023-07-31T13:33:01;34.51;36.49
65040;HTU21D;51606;45.000;38.612;2023-07-31T13:35:27;34.48;36.52
65040;HTU21D;51606;45.000;38.612;2023-07-31T13:37:54;34.45;36.47
65040;HTU21D;51606;45.000;38.612;2023-07-31T13:40:20;34.39;36.57
65040;HTU21D;51606;45.000;38.612;2023-07-31T13:42:46;34.39;36.65
65040;HTU21D;51606;45.000;38.612;2023-07-31T13:45:14;34.31;36.69
65040;HTU21D;51606;45.000;38.612;2023-07-31T13:47:40;34.29;36.71
65040;HTU21D;51606;45.000;38.612;2023-07-31T13:50:07;34.27;36.86
65040;HTU21D;51606;45.000;38.612;2023-07-31T13:52:34;34.23;36.93
65040;HTU21D;51606;45.000;38.612;2023-07-31T13:55:00;34.10;37.02
65040;HTU21D;51606;45.000;38.612;2023-07-31T13:57:26;34.01;37.18
65040;HTU21D;51606;45.000;38.612;2023-07-31T13:59:53;33.99;37.11
65040;HTU21D;51606;45.000;38.612;2023-07-31T14:02:19;33.96;37.06
65040;HTU21D;51606;45.000;38.612;2023-07-31T14:04:46;33.91;37.10
65040;HTU21D;51606;45.000;38.612;2023-07-31T14:07:12;33.86;37.20
65040;HTU21D;51606;45.000;38.612;2023-07-31T14:09:39;33.72;37.41
65040;HTU21D;51606;45.000;38.612;2023-07-31T14:12:05;33.68;37.54
65040;HTU21D;51606;45.000;38.612;2023-07-31T14:14:32;33.64;37.63
65040;HTU21D;51606;45.000;38.612;2023-07-31T14:16:59;33.62;37.71
65040;HTU21D;51606;45.000;38.612;2023-07-31T14:19:26;33.61;37.78
65040;HTU21D;51606;45.000;38.612;2023-07-31T14:21:52;33.60;37.89
65040;HTU21D;51606;45.000;38.612;2023-07-31T14:24:19;33.59;38.00
65040;HTU21D;51606;45.000;38.612;2023-07-31T14:26:45;33.57;38.07
65040;HTU21D;51606;45.000;38.612;2023-07-31T14:29:11;33.56;38.19
65040;HTU21D;51606;45.000;38.612;2023-07-31T14:31:38;33.53;38.32
65040;HTU21D;51606;45.000;38.612;2023-07-31T14:34:04;33.48;38.53
65040;HTU21D;51606;45.000;38.612;2023-07-31T14:36:31;33.43;38.68
65040;HTU21D;51606;45.000;38.612;2023-07-31T14:38:57;33.32;38.83
65040;HTU21D;51606;45.000;38.612;2023-07-31T14:41:23;33.28;38.98
65040;HTU21D;51606;45.000;38.612;2023-07-31T14:43:50;33.22;39.09
65040;HTU21D;51606;45.000;38.612;2023-07-31T14:46:16;33.17;39.28
65040;HTU21D;51606;45.000;38.612;2023-07-31T14:48:42;33.11;39.43
65040;HTU21D;51606;45.000;38.612;2023-07-31T14:51:09;33.06;39.57
65040;HTU21D;51606;45.000;38.612;2023-07-31T14:53:35;33.00;39.78
65040;HTU21D;51606;45.000;38.612;2023-07-31T14:56:02;32.92;39.87
65040;HTU21D;51606;45.000;38.612;2023-07-31T14:58:28;32.84;40.00
65040;HTU21D;51606;45.000;38.612;2023-07-31T15:00:55;32.73;40.11
65040;HTU21D;51606;45.000;38.612;2023-07-31T15:03:21;32.66;40.19
65040;HTU21D;51606;45.000;38.612;2023-07-31T15:05:47;32.56;40.29
65040;HTU21D;51606;45.000;38.612;2023-07-31T15:08:14;32.48;40.39
65040;HTU21D;51606;45.000;38.612;2023-07-31T15:10:40;32.38;40.52
65040;HTU21D;51606;45.000;38.612;2023-07-31T15:13:06;32.29;40.65
65040;HTU21D;51606;45.000;38.612;2023-07-31T15:15:33;32.22;40.80
65040;HTU21D;51606;45.000;38.612;2023-07-31T15:17:59;32.10;41.04
65040;HTU21D;51606;45.000;38.612;2023-07-31T15:20:25;31.99;41.13
65040;HTU21D;51606;45.000;38.612;2023-07-31T15:22:53;31.92;41.25
65040;HTU21D;51606;45.000;38.612;2023-07-31T15:25:20;31.82;41.45
65040;HTU21D;51606;45.000;38.612;2023-07-31T15:27:46;31.71;41.67
65040;HTU21D;51606;45.000;38.612;2023-07-31T15:30:13;31.59;41.87
65040;HTU21D;51606;45.000;38.612;2023-07-31T15:32:42;31.50;42.07
65040;HTU21D;51606;45.000;38.612;2023-07-31T15:35:11;31.37;42.27
65040;HTU21D;51606;45.000;38.612;2023-07-31T15:37:37;31.30;42.43
65040;HTU21D;51606;45.000;38.612;2023-07-31T15:40:04;31.20;42.54
65040;HTU21D;51606;45.000;38.612;2023-07-31T15:42:31;31.13;42.64
65040;HTU21D;51606;45.000;38.612;2023-07-31T15:45:01;31.10;42.72
65040;HTU21D;51606;45.000;38.612;2023-07-31T15:47:27;31.06;42.81
65040;HTU21D;51606;45.000;38.612;2023-07-31T15:49:54;31.02;42.87
65040;HTU21D;51606;45.000;38.612;2023-07-31T15:52:20;30.97;43.02
65040;HTU21D;51606;45.000;38.612;2023-07-31T15:54:47;30.90;43.16
65040;HTU21D;51606;45.000;38.612;2023-07-31T15:57:13;30.81;43.25
65040;HTU21D;51606;45.000;38.612;2023-07-31T15:59:39;30.72;43.39
65040;HTU21D;51606;45.000;38.612;2023-07-31T16:02:07;30.64;43.50
65040;HTU21D;51606;45.000;38.612;2023-07-31T16:04:37;30.54;43.60
65040;HTU21D;51606;45.000;38.612;2023-07-31T16:07:04;30.44;43.74
65040;HTU21D;51606;45.000;38.612;2023-07-31T16:09:30;30.32;43.87
65040;HTU21D;51606;45.000;38.612;2023-07-31T16:11:57;30.19;44.02
65040;HTU21D;51606;45.000;38.612;2023-07-31T16:14:24;30.06;44.16
65040;HTU21D;51606;45.000;38.612;2023-07-31T16:16:50;29.95;44.34
65040;HTU21D;51606;45.000;38.612;2023-07-31T16:19:16;29.81;44.55
65040;HTU21D;51606;45.000;38.612;2023-07-31T16:21:43;29.67;44.72
65040;HTU21D;51606;45.000;38.612;2023-07-31T16:24:09;29.53;44.90
65040;HTU21D;51606;45.000;38.612;2023-07-31T16:26:35;29.41;45.07
65040;HTU21D;51606;45.000;38.612;2023-07-31T16:29:02;29.29;45.30
65040;HTU21D;51606;45.000;38.612;2023-07-31T16:31:28;29.17;45.42
65040;HTU21D;51606;45.000;38.612;2023-07-31T16:33:55;29.05;45.61
65040;HTU21D;51606;45.000;38.612;2023-07-31T16:36:21;28.98;45.75
65040;HTU21D;51606;45.000;38.612;2023-07-31T16:39:53;28.88;45.86
65040;HTU21D;51606;45.000;38.612;2023-07-31T16:42:04;28.77;45.86
65040;HTU21D;51606;45.000;38.612;2023-07-31T16:44:31;28.70;46.00
65040;HTU21D;51606;45.000;38.612;2023-07-31T16:46:58;28.63;46.09
65040;HTU21D;51606;45.000;38.612;2023-07-31T16:49:24;28.57;46.21
65040;HTU21D;51606;45.000;38.612;2023-07-31T16:51:51;28.49;46.28
65040;HTU21D;51606;45.000;38.612;2023-07-31T16:54:17;28.41;46.37
65040;HTU21D;51606;45.000;38.612;2023-07-31T16:56:44;28.32;46.47
65040;HTU21D;51606;45.000;38.612;2023-07-31T16:59:10;28.24;46.58
65040;HTU21D;51606;45.000;38.612;2023-07-31T17:01:37;28.13;46.74
65040;HTU21D;51606;45.000;38.612;2023-07-31T17:04:03;28.04;46.83
65040;HTU21D;51606;45.000;38.612;2023-07-31T17:06:30;27.95;46.92
65040;HTU21D;51606;45.000;38.612;2023-07-31T17:08:56;27.85;47.01
65040;HTU21D;51606;45.000;38.612;2023-07-31T17:11:24;27.76;47.12
65040;HTU21D;51606;45.000;38.612;2023-07-31T17:13:50;27.67;47.32
65040;HTU21D;51606;45.000;38.612;2023-07-31T17:16:20;27.58;47.56
65040;HTU21D;51606;45.000;38.612;2023-07-31T17:18:46;27.49;47.67
65040;HTU21D;51606;45.000;38.612;2023-07-31T17:21:13;27.41;47.80
65040;HTU21D;51606;45.000;38.612;2023-07-31T17:23:40;27.35;47.88
65040;HTU21D;51606;45.000;38.612;2023-07-31T17:26:07;27.29;47.96
65040;HTU21D;51606;45.000;38.612;2023-07-31T17:28:39;27.26;48.04
65040;HTU21D;51606;45.000;38.612;2023-07-31T17:31:06;27.22;48.07
65040;HTU21D;51606;45.000;38.612;2023-07-31T17:33:34;27.21;48.11
65040;HTU21D;51606;45.000;38.612;2023-07-31T17:36:00;27.15;48.12
65040;HTU21D;51606;45.000;38.612;2023-07-31T17:38:27;27.12;48.18
65040;HTU21D;51606;45.000;38.612;2023-07-31T17:40:53;27.10;48.26
65040;HTU21D;51606;45.000;38.612;2023-07-31T17:43:20;27.06;48.31
65040;HTU21D;51606;45.000;38.612;2023-07-31T17:45:46;27.02;48.38
65040;HTU21D;51606;45.000;38.612;2023-07-31T17:48:13;26.97;48.49
65040;HTU21D;51606;45.000;38.612;2023-07-31T17:50:39;26.92;48.61
65040;HTU21D;51606;45.000;38.612;2023-07-31T17:53:06;26.84;48.73
65040;HTU21D;51606;45.000;38.612;2023-07-31T17:55:32;26.79;48.90
65040;HTU21D;51606;45.000;38.612;2023-07-31T17:57:58;26.71;49.03
65040;HTU21D;51606;45.000;38.612;2023-07-31T18:00:25;26.64;49.20
65040;HTU21D;51606;45.000;38.612;2023-07-31T18:02:51;26.55;49.31
65040;HTU21D;51606;45.000;38.612;2023-07-31T18:05:18;26.47;49.40
65040;HTU21D;51606;45.000;38.612;2023-07-31T18:07:44;26.37;49.51
65040;HTU21D;51606;45.000;38.612;2023-07-31T18:10:10;26.28;49.60
65040;HTU21D;51606;45.000;38.612;2023-07-31T18:12:37;26.21;49.69
65040;HTU21D;51606;45.000;38.612;2023-07-31T18:15:04;26.15;49.80
65040;HTU21D;51606;45.000;38.612;2023-07-31T18:17:31;26.06;49.86
65040;HTU21D;51606;45.000;38.612;2023-07-31T18:19:57;25.95;50.00
65040;HTU21D;51606;45.000;38.612;2023-07-31T18:22:24;25.90;50.11
65040;HTU21D;51606;45.000;38.612;2023-07-31T18:24:50;25.81;50.18
65040;HTU21D;51606;45.000;38.612;2023-07-31T18:27:17;25.73;50.29
65040;HTU21D;51606;45.000;38.612;2023-07-31T18:29:44;25.66;50.39
65040;HTU21D;51606;45.000;38.612;2023-07-31T18:32:11;25.59;50.46
65040;HTU21D;51606;45.000;38.612;2023-07-31T18:34:38;25.52;50.54
65040;HTU21D;51606;45.000;38.612;2023-07-31T18:37:05;25.48;50.61
65040;HTU21D;51606;45.000;38.612;2023-07-31T18:39:31;25.40;50.77
65040;HTU21D;51606;45.000;38.612;2023-07-31T18:41:58;25.34;50.87
65040;HTU21D;51606;45.000;38.612;2023-07-31T18:44:24;25.27;50.97
65040;HTU21D;51606;45.000;38.612;2023-07-31T18:46:51;25.19;51.10
65040;HTU21D;51606;45.000;38.612;2023-07-31T18:49:20;25.12;51.21
65040;HTU21D;51606;45.000;38.612;2023-07-31T18:51:46;25.06;51.29
65040;HTU21D;51606;45.000;38.612;2023-07-31T18:54:13;25.01;51.38
65040;HTU21D;51606;45.000;38.612;2023-07-31T18:56:39;24.94;51.46
65040;HTU21D;51606;45.000;38.612;2023-07-31T18:59:06;24.88;51.59
65040;HTU21D;51606;45.000;38.612;2023-07-31T19:01:33;24.82;51.72
65040;HTU21D;51606;45.000;38.612;2023-07-31T19:03:59;24.75;51.85
65040;HTU21D;51606;45.000;38.612;2023-07-31T19:06:26;24.66;52.01
65040;HTU21D;51606;45.000;38.612;2023-07-31T19:08:53;24.58;52.16
65040;HTU21D;51606;45.000;38.612;2023-07-31T19:11:23;24.51;52.33
65040;HTU21D;51606;45.000;38.612;2023-07-31T19:13:49;24.46;52.36
65040;HTU21D;51606;45.000;38.612;2023-07-31T19:16:16;24.39;52.46
65040;HTU21D;51606;45.000;38.612;2023-07-31T19:18:43;24.33;52.57